Change the Weather History Date:

Thursday, November 25, 2010

  Actual Average Record
Temperature  
Mean Temperature 60 °F -  
Max Temperature 66 °F 50 °F 68 °F (2006)
Min Temperature 53 °F 32 °F 14 °F (2005)
Degree Days  
Heating Degree Days 6    
Growing Degree Days 10 (Base 50)    
Moisture  
Dew Point 46 °F    
Average Humidity 63    
Maximum Humidity 72    
Minimum Humidity 49    
Precipitation  
Precipitation 0.00 in - - ()
Sea Level Pressure  
Sea Level Pressure 29.95 in    
Wind  
Wind Speed 14 mph (South)    
Max Wind Speed 28 mph    
Max Gust Speed 45 mph    
Visibility 10 miles    
Events      
Averages and records for this station are not official NWS values.
T = Trace of Precipitation, MM = Missing Value Source: NWS Daily Summary

Daily Weather History Graph

Daily Weather History Graph

Search for Another Location

Airport or City:

Trip Planner

Search our weather history database for the weather conditions in past years. The results will help you decide how hot, cold, wet, or windy it might be!

Date:

Astronomy

Nov. 25, 2010 Rise Set
Actual Time 7:18 AM EST 5:15 PM EST
Civil Twilight 6:50 AM EST 5:43 PM EST
Nautical Twilight 6:18 AM EST 6:15 PM EST
Astronomical Twilight 5:47 AM EST 6:46 PM EST
Moon 9:10 PM EST (11/25) 10:48 AM EST (11/25)
Length of Visible Light 10h 52m
Length of Day
9h 56m
Waning Gibbous, 83% of the Moon is Illuminated
Nov 25
Waning Gibbous
Nov 28
Last Quarter
Dec 5
New
Dec 13
First Quarter
Dec 21
Full

Hourly Weather History & Observations

Time (EST) Temp. Dew Point Humidity Pressure Visibility Wind Dir Wind Speed Gust Speed Precip Events Conditions
12:18 AM 53.6 °F 42.8 °F 67% 30.04 in 10.0 mi South 16.1 mph 20.7 mph N/A   Scattered Clouds
12:38 AM 53.6 °F 44.6 °F 72% 30.03 in 10.0 mi South 13.8 mph 23.0 mph N/A   Mostly Cloudy
12:58 AM 53.6 °F 44.6 °F 72% 30.04 in 10.0 mi South 12.7 mph 19.6 mph N/A   Mostly Cloudy
1:18 AM 53.6 °F 44.6 °F 72% 30.03 in 10.0 mi South 11.5 mph 23.0 mph N/A   Overcast
1:38 AM 53.6 °F 44.6 °F 72% 30.03 in 10.0 mi South 12.7 mph - N/A   Overcast
1:58 AM 53.6 °F 44.6 °F 72% 30.02 in 10.0 mi South 8.1 mph - N/A   Unknown
2:18 AM 53.6 °F 44.6 °F 72% 30.02 in 10.0 mi South 9.2 mph - N/A   Overcast
2:38 AM 53.6 °F 44.6 °F 72% 30.02 in 10.0 mi South 6.9 mph - N/A   Overcast
2:58 AM 53.6 °F 44.6 °F 72% 30.02 in 10.0 mi South 6.9 mph - N/A   Overcast
3:18 AM 53.6 °F 42.8 °F 67% 30.02 in 10.0 mi South 8.1 mph - N/A   Overcast
3:38 AM 53.6 °F 42.8 °F 67% 30.01 in 10.0 mi South 9.2 mph - N/A   Overcast
3:58 AM 53.6 °F 42.8 °F 67% 30.00 in 10.0 mi South 8.1 mph - N/A   Overcast
4:18 AM 53.6 °F 42.8 °F 67% 29.99 in 10.0 mi South 8.1 mph - N/A   Overcast
4:38 AM 53.6 °F 42.8 °F 67% 29.99 in 10.0 mi South 6.9 mph - N/A   Overcast
4:58 AM 53.6 °F 42.8 °F 67% 29.99 in 10.0 mi South 10.4 mph - N/A   Overcast
5:18 AM 53.6 °F 42.8 °F 67% 30.00 in 10.0 mi South 9.2 mph - N/A   Overcast
5:38 AM 53.6 °F 42.8 °F 67% 30.00 in 10.0 mi South 11.5 mph - N/A   Overcast
5:58 AM 53.6 °F 42.8 °F 67% 30.00 in 10.0 mi South 12.7 mph 16.1 mph N/A   Overcast
6:18 AM 53.6 °F 42.8 °F 67% 30.00 in 10.0 mi South 12.7 mph - N/A   Overcast
6:38 AM 53.6 °F 42.8 °F 67% 30.00 in 10.0 mi South 11.5 mph 19.6 mph N/A   Overcast
6:58 AM 53.6 °F 42.8 °F 67% 30.01 in 10.0 mi South 13.8 mph 18.4 mph N/A   Overcast
7:18 AM 55.4 °F 42.8 °F 63% 30.02 in 10.0 mi South 10.4 mph - N/A   Unknown
7:38 AM 55.4 °F 42.8 °F 63% 30.02 in 10.0 mi South 10.4 mph 18.4 mph N/A   Overcast
7:58 AM 53.6 °F 42.8 °F 67% 30.02 in 10.0 mi South 11.5 mph - N/A   Overcast
8:18 AM 57.2 °F 46.4 °F 67% 30.02 in 10.0 mi South 11.5 mph - N/A   Overcast
8:38 AM 57.2 °F 46.4 °F 67% 30.02 in 10.0 mi South 12.7 mph 17.3 mph N/A   Overcast
8:58 AM 57.2 °F 48.2 °F 72% 30.02 in 10.0 mi South 8.1 mph 18.4 mph N/A   Overcast
9:18 AM 59.0 °F 50.0 °F 72% 30.02 in 10.0 mi SSW 12.7 mph 19.6 mph N/A   Overcast
9:38 AM 60.8 °F 50.0 °F 68% 30.02 in 10.0 mi SW 16.1 mph 20.7 mph N/A   Mostly Cloudy
9:58 AM 60.8 °F 50.0 °F 68% 30.02 in 10.0 mi SSW 18.4 mph 25.3 mph N/A   Mostly Cloudy
10:18 AM 60.8 °F 50.0 °F 68% 30.01 in 10.0 mi SSW 20.7 mph 27.6 mph N/A   Mostly Cloudy
10:58 AM 60.8 °F 48.2 °F 63% 30.01 in 10.0 mi SSW 25.3 mph 38.0 mph N/A   Mostly Cloudy
11:18 AM 60.8 °F 48.2 °F 63% 30.00 in 10.0 mi SSW 23.0 mph 32.2 mph N/A   Mostly Cloudy
11:38 AM 62.6 °F 48.2 °F 59% 29.99 in 10.0 mi SSW 25.3 mph 44.9 mph N/A   Scattered Clouds
11:58 AM 62.6 °F 48.2 °F 59% 29.97 in 10.0 mi SSW 16.1 mph 39.1 mph N/A   Scattered Clouds
12:18 PM 64.4 °F 48.2 °F 56% 29.96 in 10.0 mi South 18.4 mph 27.6 mph N/A   Scattered Clouds
12:38 PM 62.6 °F 48.2 °F 59% 29.95 in 10.0 mi South 18.4 mph 26.5 mph N/A   Scattered Clouds
12:58 PM 64.4 °F 48.2 °F 56% 29.93 in 10.0 mi South 18.4 mph 21.9 mph N/A   Scattered Clouds
1:18 PM 66.2 °F 48.2 °F 52% 29.93 in 10.0 mi SSW 20.7 mph 27.6 mph N/A   Scattered Clouds
1:38 PM 64.4 °F 48.2 °F 56% 29.92 in 10.0 mi SSW 20.7 mph 29.9 mph N/A   Mostly Cloudy
1:58 PM 64.4 °F 48.2 °F 56% 29.91 in 10.0 mi SSW 17.3 mph 29.9 mph N/A   Scattered Clouds
2:18 PM 64.4 °F 48.2 °F 56% 29.90 in 10.0 mi South 16.1 mph 21.9 mph N/A   Mostly Cloudy
2:38 PM 64.4 °F 48.2 °F 56% 29.89 in 10.0 mi South 12.7 mph 20.7 mph N/A   Scattered Clouds
2:58 PM 66.2 °F 48.2 °F 52% 29.89 in 10.0 mi South 16.1 mph 23.0 mph N/A   Mostly Cloudy
3:18 PM 66.2 °F 48.2 °F 52% 29.88 in 10.0 mi SSW 19.6 mph 26.5 mph N/A   Mostly Cloudy
3:38 PM 66.2 °F 46.4 °F 49% 29.88 in 10.0 mi South 18.4 mph 23.0 mph N/A   Mostly Cloudy
3:58 PM 66.2 °F 46.4 °F 49% 29.87 in 10.0 mi South 12.7 mph 23.0 mph N/A   Scattered Clouds
4:18 PM 64.4 °F 46.4 °F 52% 29.87 in 10.0 mi South 12.7 mph 19.6 mph N/A   Scattered Clouds
4:38 PM 64.4 °F 46.4 °F 52% 29.88 in 10.0 mi South 11.5 mph 17.3 mph N/A   Scattered Clouds
4:58 PM 62.6 °F 46.4 °F 55% 29.87 in 10.0 mi South 12.7 mph - N/A   Mostly Cloudy
5:18 PM 62.6 °F 46.4 °F 55% 29.87 in 10.0 mi South 8.1 mph - N/A   Overcast
5:38 PM 62.6 °F 46.4 °F 55% 29.86 in 10.0 mi South 8.1 mph - N/A   Mostly Cloudy
6:18 PM 60.8 °F 46.4 °F 59% 29.83 in 10.0 mi SSE 6.9 mph - N/A   Clear
6:58 PM 62.6 °F 46.4 °F 55% 29.82 in 10.0 mi South 13.8 mph 25.3 mph N/A   Clear
7:18 PM 62.6 °F 46.4 °F 55% 29.80 in 10.0 mi South 11.5 mph 20.7 mph N/A   Clear
7:38 PM 62.6 °F 46.4 °F 55% 29.79 in 10.0 mi SSW 16.1 mph 25.3 mph N/A   Clear
7:58 PM 62.6 °F 46.4 °F 55% 29.79 in 10.0 mi SSW 18.4 mph 29.9 mph N/A   Clear
8:18 PM 62.6 °F 48.2 °F 59% 29.78 in 10.0 mi SSW 27.6 mph 35.7 mph N/A   Clear
8:38 PM 62.6 °F 48.2 °F 59% 29.78 in 10.0 mi SSW 25.3 mph 35.7 mph N/A   Mostly Cloudy
8:58 PM 62.6 °F 50.0 °F 63% 29.78 in 10.0 mi SSW 26.5 mph 32.2 mph N/A   Mostly Cloudy
9:18 PM 62.6 °F 50.0 °F 63% 29.78 in 10.0 mi SSW 26.5 mph 38.0 mph N/A   Scattered Clouds
9:38 PM 60.8 °F 50.0 °F 68% 29.79 in 10.0 mi SSW 21.9 mph 27.6 mph N/A   Mostly Cloudy
9:58 PM 62.6 °F 50.0 °F 63% 29.79 in 10.0 mi SSW 19.6 mph 32.2 mph N/A   Overcast
10:18 PM 62.6 °F 50.0 °F 63% 29.78 in 10.0 mi South 18.4 mph 27.6 mph N/A   Overcast
10:38 PM 60.8 °F 50.0 °F 68% 29.77 in 10.0 mi SSW 15.0 mph 24.2 mph N/A   Overcast
10:58 PM 60.8 °F 51.8 °F 72% 29.76 in 10.0 mi SSW 19.6 mph 25.3 mph N/A   Overcast
11:18 PM 60.8 °F 53.6 °F 77% 29.76 in 7.0 mi SW 16.1 mph 31.1 mph N/A   Overcast
11:38 PM 59.0 °F 55.4 °F 88% 29.77 in 1.8 mi WSW 20.7 mph 36.8 mph N/A   Overcast
11:58 PM 55.4 °F 51.8 °F 88% 29.81 in 1.8 mi WNW 13.8 mph 28.8 mph N/A   Overcast